Time;durP1;ratioP1;P1;durP2;ratioP2;P2;SDS_P1;SDS_P2;PMS_P1;PMS_P2;Temp;Humidity;BMP_temperature;BMP_pressure;BME280_temperature;BME280_humidity;BME280_pressure;Samples;Min_cycle;Max_cycle;Signal;HPM_P1;HPM_P2
2022/03/13 00:00:54;;;;;;;0.40;0.40;;;;;;;5.04;38.41;101739.63;5096292;28;20813;-72
2022/03/13 00:03:23;;;;;;;0.40;0.30;;;;;;;4.95;38.00;101733.00;5096293;28;20469;-71
2022/03/13 00:05:51;;;;;;;0.40;0.30;;;;;;;4.91;38.58;101736.38;5095763;28;20488;-71
2022/03/13 00:08:27;;;;;;;0.40;0.30;;;;;;;4.80;38.95;101733.47;5096052;28;20444;-72
2022/03/13 00:10:57;;;;;;;0.87;0.87;;;;;;;4.86;39.07;101731.72;5096231;28;20440;-72
2022/03/13 00:13:30;;;;;;;0.40;0.30;;;;;;;4.91;38.22;101728.31;5096098;28;20487;-72
2022/03/13 00:15:59;;;;;;;0.40;0.30;;;;;;;4.88;37.90;101728.81;5095993;28;20463;-72
2022/03/13 00:18:26;;;;;;;0.40;0.30;;;;;;;4.80;38.24;101730.78;5095003;28;20433;-72
2022/03/13 00:20:52;;;;;;;0.40;0.30;;;;;;;4.85;38.15;101721.22;5095642;28;20440;-72
2022/03/13 00:23:19;;;;;;;0.40;0.30;;;;;;;4.81;38.45;101721.69;5095969;28;20494;-72
2022/03/13 00:25:47;;;;;;;4.63;3.80;;;;;;;4.80;38.76;101732.66;5095848;28;20539;-71
2022/03/13 00:28:14;;;;;;;13.90;10.10;;;;;;;4.74;38.14;101721.00;5095868;28;20834;-71
2022/03/13 00:30:40;;;;;;;0.40;0.30;;;;;;;4.78;38.45;101727.53;5095761;28;20444;-71
2022/03/13 00:33:07;;;;;;;0.40;0.30;;;;;;;4.78;38.20;101721.31;5095699;28;20441;-72
2022/03/13 00:35:34;;;;;;;0.40;0.30;;;;;;;4.79;38.00;101723.78;5095688;28;20447;-72
2022/03/13 00:38:01;;;;;;;0.50;0.30;;;;;;;4.76;38.21;101716.19;5095821;28;20429;-72
2022/03/13 00:40:28;;;;;;;1.90;1.80;;;;;;;4.80;37.76;101725.41;5095590;28;20501;-70
2022/03/13 00:42:56;;;;;;;0.40;0.30;;;;;;;4.71;38.41;101720.66;5095477;28;20440;-70
2022/03/13 00:45:23;;;;;;;0.40;0.30;;;;;;;4.66;38.31;101712.47;5095411;28;20484;-71
2022/03/13 00:47:49;;;;;;;0.53;0.53;;;;;;;4.61;38.62;101723.91;5095369;28;20568;-70
2022/03/13 00:50:15;;;;;;;0.40;0.30;;;;;;;4.60;38.80;101724.13;5095401;28;20810;-70
2022/03/13 00:52:42;;;;;;;0.40;0.40;;;;;;;4.58;39.20;101727.06;5095232;28;20444;-70
2022/03/13 00:55:09;;;;;;;0.40;0.40;;;;;;;4.52;39.03;101719.94;5095382;28;20425;-70
2022/03/13 00:57:36;;;;;;;0.40;0.30;;;;;;;4.50;39.17;101719.34;5094854;28;20993;-70
2022/03/13 01:00:05;;;;;;;0.40;0.30;;;;;;;4.50;39.25;101720.16;5095175;28;20436;-70
2022/03/13 01:02:31;;;;;;;0.70;0.70;;;;;;;4.45;38.99;101722.72;5095140;28;20444;-70
2022/03/13 01:04:57;;;;;;;0.40;0.30;;;;;;;4.46;39.30;101718.19;5095007;28;20487;-70
2022/03/13 01:07:24;;;;;;;0.40;0.30;;;;;;;4.48;38.50;101713.41;5094946;28;20509;-70
2022/03/13 01:09:50;;;;;;;1.13;1.13;;;;;;;4.52;39.54;101712.72;5094998;28;20436;-70
2022/03/13 01:12:17;;;;;;;0.40;0.40;;;;;;;4.48;39.14;101713.41;5094939;28;20445;-70
2022/03/13 01:14:43;;;;;;;0.40;0.30;;;;;;;4.49;39.35;101717.72;5094979;28;20444;-70
2022/03/13 01:17:11;;;;;;;23.07;10.37;;;;;;;4.44;39.74;101713.06;5094756;28;20463;-69
2022/03/13 01:19:38;;;;;;;0.40;0.30;;;;;;;4.45;40.15;101725.41;5094841;28;20487;-70
2022/03/13 01:22:05;;;;;;;0.40;0.30;;;;;;;4.40;39.80;101724.47;5094822;28;20493;-70
2022/03/13 01:24:34;;;;;;;0.40;0.30;;;;;;;4.26;39.61;101716.66;5094715;28;20535;-71
2022/03/13 01:27:02;;;;;;;0.73;0.73;;;;;;;4.20;39.25;101714.88;5094566;28;20842;-71
2022/03/13 01:29:31;;;;;;;0.40;0.30;;;;;;;4.14;39.30;101718.47;5094148;28;20954;-70
2022/03/13 01:31:57;;;;;;;0.40;0.30;;;;;;;4.16;39.81;101708.38;5094458;28;20463;-71
2022/03/13 01:34:41;;;;;;;5.13;4.73;;;;;;;4.10;39.78;101711.94;5094562;28;20470;-71
2022/03/13 01:37:12;;;;;;;0.40;0.30;;;;;;;3.97;40.19;101714.81;5094182;28;20973;-71
2022/03/13 01:39:39;;;;;;;0.40;0.30;;;;;;;3.88;40.07;101721.56;5094318;28;20429;-71
2022/03/13 01:42:06;;;;;;;0.40;0.30;;;;;;;3.89;39.74;101709.78;5094240;28;20494;-71
2022/03/13 01:44:32;;;;;;;0.40;0.30;;;;;;;3.89;39.78;101717.81;5094176;28;20497;-71
2022/03/13 01:47:00;;;;;;;0.40;0.30;;;;;;;3.91;39.69;101707.72;5094051;28;20487;-71
2022/03/13 01:49:28;;;;;;;0.40;0.30;;;;;;;3.85;39.78;101711.28;5094205;28;20497;-71
2022/03/13 01:51:56;;;;;;;0.40;0.30;;;;;;;3.79;39.85;101705.78;5094157;28;20471;-71
2022/03/13 01:54:22;;;;;;;0.40;0.30;;;;;;;3.72;39.65;101707.78;5093824;28;20498;-71
2022/03/13 01:56:49;;;;;;;0.40;0.30;;;;;;;3.76;39.86;101702.75;5094060;28;20456;-70
2022/03/13 01:59:17;;;;;;;0.40;0.30;;;;;;;3.78;39.86;101701.50;5093997;28;20462;-70
2022/03/13 02:01:44;;;;;;;0.40;0.30;;;;;;;3.78;39.87;101701.50;5093996;28;20502;-73
2022/03/13 02:04:12;;;;;;;0.40;0.30;;;;;;;3.77;39.86;101704.41;5094035;28;20472;-75
2022/03/13 02:06:39;;;;;;;0.40;0.30;;;;;;;3.75;40.11;101704.63;5094490;28;20500;-75
2022/03/13 02:09:07;;;;;;;0.40;0.30;;;;;;;3.75;40.08;101701.94;5094596;28;20517;-72
2022/03/13 02:11:38;;;;;;;0.40;0.30;;;;;;;3.69;40.05;101697.50;5095500;28;20444;-72
2022/03/13 02:14:06;;;;;;;0.40;0.30;;;;;;;3.72;40.16;101701.59;5093894;28;20431;-71
2022/03/13 02:16:32;;;;;;;0.40;0.30;;;;;;;3.63;40.74;101698.41;5093690;28;20514;-71
2022/03/13 02:18:59;;;;;;;0.40;0.30;;;;;;;3.65;40.93;101696.31;5093806;28;20502;-71
2022/03/13 02:21:28;;;;;;;0.40;0.30;;;;;;;3.68;40.40;101689.69;5093662;28;20444;-71
2022/03/13 02:24:01;;;;;;;0.40;0.30;;;;;;;3.67;40.49;101693.41;5093341;28;20847;-71
2022/03/13 02:26:28;;;;;;;0.40;0.33;;;;;;;3.67;40.39;101694.22;5093537;28;20483;-72
2022/03/13 02:28:56;;;;;;;0.40;0.30;;;;;;;3.69;40.72;101688.66;5093632;28;20519;-71
2022/03/13 02:31:27;;;;;;;0.40;0.30;;;;;;;3.71;40.95;101694.59;5093565;28;20440;-72
2022/03/13 02:33:54;;;;;;;0.50;0.40;;;;;;;3.73;40.85;101693.31;5093241;28;20412;-72
2022/03/13 02:36:41;;;;;;;0.40;0.30;;;;;;;3.76;40.67;101690.19;5093459;28;20826;-72
2022/03/13 02:39:10;;;;;;;0.40;0.30;;;;;;;3.74;40.58;101688.78;5093541;28;20459;-72
2022/03/13 02:41:38;;;;;;;0.40;0.30;;;;;;;3.71;40.76;101692.72;5092723;28;20498;-72
2022/03/13 02:44:07;;;;;;;3.77;3.53;;;;;;;3.58;40.79;101684.88;5093066;28;20441;-73
2022/03/13 02:46:54;;;;;;;0.50;0.50;;;;;;;3.50;40.35;101682.53;5093176;28;20487;-73
2022/03/13 02:49:22;;;;;;;9.30;8.60;;;;;;;3.44;40.15;101684.22;5093336;28;20432;-72
2022/03/13 02:51:52;;;;;;;0.40;0.30;;;;;;;3.47;40.21;101689.13;5093271;28;20436;-72
2022/03/13 02:54:21;;;;;;;0.40;0.30;;;;;;;3.41;40.59;101690.06;5092988;28;20452;-72
2022/03/13 02:56:48;;;;;;;0.40;0.30;;;;;;;3.38;40.08;101695.03;5093157;28;20869;-72
2022/03/13 02:59:15;;;;;;;2.40;2.30;;;;;;;3.28;40.58;101696.41;5093296;28;20471;-72
2022/03/13 03:01:41;;;;;;;0.40;0.30;;;;;;;3.30;40.68;101682.78;5093333;28;20487;-72
2022/03/13 03:04:09;;;;;;;0.40;0.30;;;;;;;3.29;40.64;101690.00;5093296;28;20796;-72
2022/03/13 03:06:38;;;;;;;0.40;0.30;;;;;;;3.30;41.28;101698.84;5092978;28;20850;-72
2022/03/13 03:09:05;;;;;;;0.40;0.30;;;;;;;3.27;40.40;101691.25;5093169;28;20479;-73
2022/03/13 03:11:33;;;;;;;0.40;0.30;;;;;;;3.32;40.60;101685.22;5093229;28;20447;-73
2022/03/13 03:14:00;;;;;;;1.33;1.23;;;;;;;3.22;41.39;101691.09;5093255;28;20881;-73
2022/03/13 03:16:27;;;;;;;0.40;0.30;;;;;;;3.28;40.93;101688.34;5092784;28;20464;-73
2022/03/13 03:18:53;;;;;;;0.40;0.30;;;;;;;3.19;41.16;101692.38;5092945;28;20967;-73
2022/03/13 03:21:19;;;;;;;6.87;6.43;;;;;;;3.11;41.65;101691.88;5093196;28;20448;-73
2022/03/13 03:23:46;;;;;;;0.40;0.30;;;;;;;3.13;41.46;101695.94;5093220;28;20445;-73
2022/03/13 03:26:12;;;;;;;2.73;2.63;;;;;;;3.11;41.41;101695.34;5093041;28;20488;-73
2022/03/13 03:28:40;;;;;;;0.40;0.30;;;;;;;3.07;41.38;101683.47;5092782;28;20976;-73
2022/03/13 03:31:07;;;;;;;0.40;0.30;;;;;;;3.04;41.66;101689.25;5092744;28;20968;-73
2022/03/13 03:33:33;;;;;;;0.40;0.30;;;;;;;2.98;41.48;101676.78;5092951;28;20856;-73
2022/03/13 03:35:59;;;;;;;0.40;0.30;;;;;;;3.03;41.89;101684.94;5092889;28;20460;-73
2022/03/13 03:38:26;;;;;;;0.40;0.30;;;;;;;2.99;41.33;101687.25;5092989;28;20451;-70
2022/03/13 03:40:52;;;;;;;2.93;2.83;;;;;;;2.99;41.81;101681.09;5092871;28;20440;-71
2022/03/13 03:43:19;;;;;;;0.40;0.30;;;;;;;2.96;41.73;101685.00;5092858;28;20447;-71
2022/03/13 03:45:47;;;;;;;0.40;0.30;;;;;;;2.97;41.97;101681.31;5092676;28;20545;-70
2022/03/13 03:48:13;;;;;;;1.57;1.47;;;;;;;2.98;42.27;101679.47;5092817;28;20432;-71
2022/03/13 03:50:43;;;;;;;0.40;0.30;;;;;;;3.02;41.74;101676.09;5092835;28;20452;-70
2022/03/13 03:53:09;;;;;;;0.40;0.30;;;;;;;3.09;41.33;101675.19;5093317;28;20456;-70
2022/03/13 03:55:36;;;;;;;0.40;0.30;;;;;;;3.10;41.76;101676.81;5096317;28;20440;-71
2022/03/13 03:58:02;;;;;;;0.40;0.30;;;;;;;3.05;41.78;101685.53;5096379;28;20444;-71
2022/03/13 04:00:29;;;;;;;0.40;0.30;;;;;;;3.05;41.80;101680.19;5096042;28;20930;-69
2022/03/13 04:02:57;;;;;;;0.40;0.30;;;;;;;3.06;41.72;101676.47;5096293;28;20448;-70
2022/03/13 04:05:24;;;;;;;0.40;0.30;;;;;;;3.05;41.54;101674.81;5096317;28;20808;-70
2022/03/13 04:07:50;;;;;;;0.97;0.97;;;;;;;3.08;41.85;101677.06;5096098;28;20480;-69
2022/03/13 04:10:16;;;;;;;0.83;0.83;;;;;;;3.04;41.46;101673.19;5096199;28;20444;-69
2022/03/13 04:12:43;;;;;;;0.40;0.30;;;;;;;3.06;41.03;101679.16;5096084;28;20818;-70
2022/03/13 04:15:09;;;;;;;0.40;0.30;;;;;;;3.06;40.84;101675.66;5096260;28;20490;-69
2022/03/13 04:17:36;;;;;;;0.40;0.30;;;;;;;3.04;40.40;101675.88;5095627;28;20965;-69
2022/03/13 04:20:05;;;;;;;0.40;0.30;;;;;;;2.95;40.70;101679.88;5095643;28;20829;-70
2022/03/13 04:22:31;;;;;;;0.50;0.50;;;;;;;2.94;40.38;101672.91;5095585;28;20466;-71
2022/03/13 04:24:58;;;;;;;0.40;0.30;;;;;;;2.89;40.71;101675.44;5095826;28;20463;-71
2022/03/13 04:27:25;;;;;;;0.40;0.30;;;;;;;2.90;41.09;101671.72;5095603;28;20507;-69
2022/03/13 04:29:51;;;;;;;0.40;0.30;;;;;;;2.89;40.78;101673.59;5095738;28;20436;-70
2022/03/13 04:32:21;;;;;;;0.40;0.30;;;;;;;2.92;40.78;101670.47;5095778;28;20467;-71
2022/03/13 04:34:48;;;;;;;0.40;0.30;;;;;;;2.90;40.54;101675.22;5095659;28;20440;-71
2022/03/13 04:37:16;;;;;;;0.40;0.30;;;;;;;2.89;40.34;101678.13;5095622;28;20457;-71
2022/03/13 04:39:42;;;;;;;0.40;0.30;;;;;;;2.89;40.32;101684.28;5095761;28;20471;-71
2022/03/13 04:42:09;;;;;;;0.40;0.30;;;;;;;2.86;41.16;101676.69;5095554;28;20929;-70
2022/03/13 04:44:35;;;;;;;0.40;0.30;;;;;;;2.86;41.17;101683.91;5095882;28;20441;-72
2022/03/13 04:47:03;;;;;;;0.40;0.30;;;;;;;2.87;41.29;101686.34;5095344;28;20499;-72
2022/03/13 04:49:29;;;;;;;0.40;0.30;;;;;;;2.83;41.07;101684.34;5095398;28;20853;-72
2022/03/13 04:51:56;;;;;;;0.40;0.40;;;;;;;2.86;41.34;101687.41;5095417;28;20444;-71
2022/03/13 04:54:23;;;;;;;0.40;0.30;;;;;;;2.82;40.91;101680.84;5095014;28;20452;-72
2022/03/13 04:56:50;;;;;;;0.40;0.30;;;;;;;2.74;41.23;101679.28;5094896;28;20969;-72
2022/03/13 04:59:16;;;;;;;0.40;0.30;;;;;;;2.77;41.34;101678.84;5095284;28;20497;-72
2022/03/13 05:01:43;;;;;;;0.40;0.30;;;;;;;2.73;41.34;101687.53;5095300;28;20451;-72
2022/03/13 05:04:10;;;;;;;0.40;0.30;;;;;;;2.70;41.69;101693.31;5095162;28;20520;-72
2022/03/13 05:06:38;;;;;;;0.40;0.30;;;;;;;2.81;41.57;101697.13;5094443;28;20563;-71
2022/03/13 05:09:05;;;;;;;0.40;0.30;;;;;;;2.78;41.55;101696.53;5094797;28;20962;-71
2022/03/13 05:11:34;;;;;;;0.40;0.30;;;;;;;2.85;41.79;101692.97;5094971;28;20451;-71
2022/03/13 05:14:00;;;;;;;0.40;0.30;;;;;;;2.81;41.82;101694.47;5094933;28;20437;-71
2022/03/13 05:16:27;;;;;;;0.53;0.53;;;;;;;2.78;41.78;101693.84;5094753;28;20453;-71
2022/03/13 05:18:53;;;;;;;0.40;0.40;;;;;;;2.74;41.84;101687.31;5094571;28;20448;-71
2022/03/13 05:21:20;;;;;;;0.40;0.30;;;;;;;2.77;41.71;101694.91;5094803;28;20493;-71
2022/03/13 05:23:46;;;;;;;0.40;0.30;;;;;;;2.80;41.45;101695.50;5094698;28;20463;-72
2022/03/13 05:26:13;;;;;;;0.53;0.53;;;;;;;2.85;41.60;101696.47;5094893;28;20460;-72
2022/03/13 05:28:41;;;;;;;0.40;0.30;;;;;;;2.86;41.37;101700.78;5094775;28;20447;-71
2022/03/13 05:31:07;;;;;;;0.40;0.30;;;;;;;2.82;41.44;101699.56;5094632;28;20440;-71
2022/03/13 05:33:34;;;;;;;0.40;0.30;;;;;;;2.81;41.44;101707.84;5094563;28;20455;-71
2022/03/13 05:36:01;;;;;;;0.40;0.30;;;;;;;2.75;41.61;101696.16;5094437;28;20500;-71
2022/03/13 05:38:27;;;;;;;2.00;1.90;;;;;;;2.70;42.13;101694.16;5094683;28;20802;-74
2022/03/13 05:40:54;;;;;;;0.40;0.30;;;;;;;2.64;41.88;101697.69;5094416;28;20522;-75
2022/03/13 05:43:23;;;;;;;0.40;0.30;;;;;;;2.65;41.37;101702.00;5094345;28;20446;-73
2022/03/13 05:45:51;;;;;;;0.40;0.30;;;;;;;2.64;41.59;101700.38;5094014;28;20973;-72
2022/03/13 05:48:18;;;;;;;0.40;0.30;;;;;;;2.57;41.79;101704.13;5094183;28;20571;-71
2022/03/13 05:50:46;;;;;;;2.10;2.00;;;;;;;2.51;41.57;101700.50;5094204;28;20452;-73
2022/03/13 05:53:12;;;;;;;0.40;0.30;;;;;;;2.52;41.90;101710.16;5093891;28;20956;-73
2022/03/13 05:55:39;;;;;;;0.40;0.30;;;;;;;2.61;41.38;101705.34;5093763;28;20945;-72
2022/03/13 05:58:05;;;;;;;3.13;2.93;;;;;;;2.66;41.58;101709.00;5095167;28;20980;-72
2022/03/13 06:00:32;;;;;;;0.40;0.30;;;;;;;2.71;42.31;101711.03;5093797;28;20437;-72
2022/03/13 06:03:00;;;;;;;0.40;0.30;;;;;;;2.79;41.50;101718.78;5094075;28;20878;-72
2022/03/13 06:05:27;;;;;;;2.97;1.40;;;;;;;2.76;41.38;101722.69;5093911;28;20813;-72
2022/03/13 06:07:55;;;;;;;0.40;0.30;;;;;;;2.75;41.37;101717.56;5093605;28;21031;-72
2022/03/13 06:10:21;;;;;;;0.40;0.40;;;;;;;2.77;40.79;101715.47;5093904;28;20475;-73
2022/03/13 06:12:48;;;;;;;0.40;0.30;;;;;;;2.80;40.70;101725.75;5093858;28;20444;-73
2022/03/13 06:15:17;;;;;;;0.40;0.30;;;;;;;2.77;40.64;101721.66;5093825;28;20444;-72
2022/03/13 06:17:45;;;;;;;0.40;0.30;;;;;;;2.93;40.49;101717.59;5092758;28;20514;-73
2022/03/13 06:20:16;;;;;;;0.40;0.30;;;;;;;2.88;41.07;101717.44;5093667;28;20440;-72
2022/03/13 06:22:44;;;;;;;0.40;0.30;;;;;;;2.94;41.19;101723.75;5093416;28;20945;-73
2022/03/13 06:25:13;;;;;;;0.40;0.40;;;;;;;2.93;41.14;101714.09;5093721;28;20930;-73
2022/03/13 06:27:40;;;;;;;0.40;0.30;;;;;;;3.02;40.68;101729.63;5093751;28;20533;-72
2022/03/13 06:30:13;;;;;;;0.40;0.30;;;;;;;2.96;40.72;101725.16;5093640;28;20433;-72
2022/03/13 06:32:40;;;;;;;0.40;0.30;;;;;;;3.10;40.80;101733.03;5093620;28;20425;-73
2022/03/13 06:35:07;;;;;;;0.40;0.30;;;;;;;3.18;40.68;101725.53;5093337;28;20960;-73
2022/03/13 06:37:35;;;;;;;0.40;0.30;;;;;;;3.20;39.76;101728.81;5093459;28;20456;-74
2022/03/13 06:40:02;;;;;;;0.40;0.30;;;;;;;3.22;40.25;101737.44;5093457;28;20452;-73
2022/03/13 06:42:29;;;;;;;0.40;0.30;;;;;;;3.31;39.73;101726.41;5093429;28;20443;-72
2022/03/13 06:44:55;;;;;;;0.40;0.30;;;;;;;3.35;39.61;101733.78;5093368;28;20436;-72
2022/03/13 06:47:22;;;;;;;0.40;0.40;;;;;;;3.46;39.81;101734.91;5092982;28;20506;-72
2022/03/13 06:49:48;;;;;;;0.40;0.30;;;;;;;3.49;39.35;101735.25;5093378;28;20440;-71
2022/03/13 06:52:15;;;;;;;0.40;0.30;;;;;;;3.58;39.37;101727.72;5093293;28;20444;-72
2022/03/13 06:54:43;;;;;;;0.40;0.30;;;;;;;3.58;39.13;101730.41;5093035;28;20475;-72
2022/03/13 06:57:09;;;;;;;0.40;0.30;;;;;;;3.70;38.96;101727.78;5093355;28;20510;-72
2022/03/13 06:59:36;;;;;;;2.20;2.10;;;;;;;3.76;39.07;101734.91;5093237;28;20440;-72
2022/03/13 07:02:02;;;;;;;0.60;0.53;;;;;;;3.72;39.51;101731.88;5093259;28;20444;-73
2022/03/13 07:04:29;;;;;;;3.03;2.83;;;;;;;3.76;38.35;101735.75;5092942;28;20934;-72
2022/03/13 07:06:55;;;;;;;0.40;0.30;;;;;;;3.82;39.29;101734.00;5093108;28;20488;-72
2022/03/13 07:09:21;;;;;;;0.40;0.30;;;;;;;3.90;38.48;101736.38;5093124;28;20451;-72
2022/03/13 07:11:49;;;;;;;0.40;0.30;;;;;;;4.07;39.16;101735.72;5093818;28;20447;-72
2022/03/13 07:14:18;;;;;;;0.40;0.30;;;;;;;4.11;38.64;101735.03;5094353;28;20444;-75
2022/03/13 07:16:45;;;;;;;0.40;0.30;;;;;;;4.17;38.20;101736.81;5095833;28;20494;-76
2022/03/13 07:19:11;;;;;;;9.60;8.70;;;;;;;4.19;38.88;101737.38;5093664;28;20443;-75
2022/03/13 07:21:38;;;;;;;0.40;0.30;;;;;;;4.19;37.96;101732.00;5093140;28;20444;-70
2022/03/13 07:24:05;;;;;;;0.40;0.30;;;;;;;4.23;38.15;101724.34;5093017;28;20443;-71
2022/03/13 07:26:32;;;;;;;0.40;0.30;;;;;;;4.26;38.22;101722.00;5092932;28;20456;-71
2022/03/13 07:29:01;;;;;;;0.40;0.30;;;;;;;4.31;37.56;101734.72;5095001;28;20484;-71
2022/03/13 07:31:27;;;;;;;0.40;0.30;;;;;;;4.30;37.37;101731.22;5096856;28;21087;-71
2022/03/13 07:33:53;;;;;;;0.40;0.30;;;;;;;4.37;37.58;101732.97;5096708;28;20436;-71
2022/03/13 07:36:20;;;;;;;0.40;0.30;;;;;;;4.42;37.21;101727.72;5096725;28;20479;-71
2022/03/13 07:38:46;;;;;;;0.40;0.30;;;;;;;4.42;37.22;101733.09;5096820;28;20489;-69
2022/03/13 07:41:13;;;;;;;0.40;0.30;;;;;;;4.51;36.85;101731.69;5096717;28;20440;-71
2022/03/13 07:43:39;;;;;;;0.50;0.50;;;;;;;4.65;37.53;101726.94;5096330;28;20849;-70
2022/03/13 07:46:07;;;;;;;0.40;0.30;;;;;;;4.79;36.81;101726.47;5096584;28;20830;-70
2022/03/13 07:48:35;;;;;;;0.70;0.70;;;;;;;4.84;36.99;101723.09;5096191;28;20836;-70
2022/03/13 07:51:01;;;;;;;1.03;1.03;;;;;;;4.89;36.62;101731.25;5096610;28;20535;-70
2022/03/13 07:53:28;;;;;;;0.40;0.30;;;;;;;4.88;36.59;101734.19;5096070;28;20920;-70
2022/03/13 07:55:54;;;;;;;0.40;0.30;;;;;;;4.97;36.23;101741.63;5096354;28;20456;-70
2022/03/13 07:58:21;;;;;;;0.40;0.30;;;;;;;5.02;36.73;101736.38;5096368;28;20437;-70
2022/03/13 08:00:48;;;;;;;0.70;0.70;;;;;;;5.09;36.13;101738.94;5096399;28;20615;-70
2022/03/13 08:03:20;;;;;;;0.40;0.30;;;;;;;5.10;36.21;101737.91;5095991;28;20440;-70
2022/03/13 08:05:47;;;;;;;0.40;0.30;;;;;;;5.23;35.85;101734.94;5096227;28;20528;-70
2022/03/13 08:08:13;;;;;;;0.40;0.30;;;;;;;5.34;36.10;101735.97;5096161;28;20480;-70
2022/03/13 08:10:40;;;;;;;0.40;0.30;;;;;;;5.49;35.63;101735.44;5095855;28;20444;-71
2022/03/13 08:13:06;;;;;;;0.40;0.30;;;;;;;5.60;35.67;101729.22;5096150;28;20447;-71
2022/03/13 08:15:32;;;;;;;1.03;1.03;;;;;;;5.65;35.50;101718.56;5095658;28;20934;-71
2022/03/13 08:17:59;;;;;;;0.40;0.30;;;;;;;5.77;34.66;101730.09;5096037;28;20448;-70
2022/03/13 08:20:27;;;;;;;0.40;0.30;;;;;;;5.82;34.68;101737.44;5096017;28;20437;-71
2022/03/13 08:22:53;;;;;;;0.40;0.30;;;;;;;5.95;34.77;101739.06;5095874;28;20437;-70
2022/03/13 08:25:20;;;;;;;0.40;0.30;;;;;;;6.00;33.52;101736.44;5095878;28;20444;-71
2022/03/13 08:27:48;;;;;;;0.40;0.30;;;;;;;6.15;33.88;101736.72;5095738;28;20595;-70
2022/03/13 08:30:14;;;;;;;4.77;4.53;;;;;;;6.28;33.01;101733.69;5095816;28;20535;-71
2022/03/13 08:32:41;;;;;;;0.50;0.40;;;;;;;6.37;33.25;101733.31;5095739;28;20862;-71
2022/03/13 08:35:09;;;;;;;0.40;0.30;;;;;;;6.47;33.33;101733.50;5095671;28;20451;-71
2022/03/13 08:37:37;;;;;;;1.97;1.33;;;;;;;6.51;33.38;101727.38;5095592;28;20825;-70
2022/03/13 08:40:05;;;;;;;0.40;0.30;;;;;;;6.58;32.87;101732.56;5094486;28;20440;-71
2022/03/13 08:42:32;;;;;;;0.40;0.30;;;;;;;6.69;32.68;101723.59;5095290;28;20918;-71
2022/03/13 08:44:58;;;;;;;0.40;0.30;;;;;;;6.75;32.73;101732.56;5095537;28;20535;-71
2022/03/13 08:47:25;;;;;;;0.40;0.30;;;;;;;6.87;32.19;101713.63;5095334;28;20492;-71
2022/03/13 08:49:52;;;;;;;0.40;0.30;;;;;;;6.89;32.29;101714.16;5095457;28;20471;-71
2022/03/13 08:52:19;;;;;;;0.40;0.30;;;;;;;6.91;31.89;101715.56;5095345;28;20491;-71
2022/03/13 08:54:47;;;;;;;0.40;0.30;;;;;;;6.90;32.21;101722.00;5094880;28;20840;-71
2022/03/13 08:57:14;;;;;;;0.40;0.40;;;;;;;6.94;32.51;101717.75;5095227;28;20488;-71
2022/03/13 08:59:41;;;;;;;0.80;0.80;;;;;;;7.00;31.99;101711.38;5095222;28;20447;-71
2022/03/13 09:02:09;;;;;;;0.40;0.30;;;;;;;7.03;32.31;101712.75;5095211;28;20497;-75
2022/03/13 09:04:36;;;;;;;1.03;1.03;;;;;;;7.20;31.88;101716.19;5095145;28;20451;-71
2022/03/13 09:07:03;;;;;;;0.60;0.60;;;;;;;7.27;31.80;101711.44;5095007;28;20514;-73
2022/03/13 09:09:29;;;;;;;4.73;4.30;;;;;;;7.32;31.34;101702.63;5094923;28;20503;-71
2022/03/13 09:11:58;;;;;;;0.40;0.30;;;;;;;7.34;31.64;101706.66;5095048;28;20445;-72
2022/03/13 09:14:26;;;;;;;0.40;0.30;;;;;;;7.41;31.14;101713.75;5094953;28;20452;-71
2022/03/13 09:16:53;;;;;;;0.40;0.30;;;;;;;7.54;31.43;101710.69;5094821;28;20461;-70
2022/03/13 09:19:20;;;;;;;0.40;0.30;;;;;;;7.63;30.98;101713.75;5094771;28;20433;-71
2022/03/13 09:21:47;;;;;;;9.30;8.10;;;;;;;7.72;30.88;101713.03;5094842;28;20444;-72
2022/03/13 09:24:13;;;;;;;0.40;0.30;;;;;;;7.78;30.93;101709.31;5094733;28;20445;-73
2022/03/13 09:26:40;;;;;;;2.20;2.10;;;;;;;7.89;30.79;101709.44;5094251;28;20468;-73
2022/03/13 09:29:08;;;;;;;0.40;0.30;;;;;;;7.91;30.61;101704.59;5094660;28;20491;-73
2022/03/13 09:31:35;;;;;;;0.40;0.30;;;;;;;8.06;31.04;101710.13;5094546;28;20463;-73
2022/03/13 09:34:01;;;;;;;0.40;0.30;;;;;;;8.06;30.48;101708.25;5094569;28;20448;-73
2022/03/13 09:36:28;;;;;;;0.40;0.30;;;;;;;8.15;30.34;101710.47;5094390;28;20456;-73
2022/03/13 09:38:54;;;;;;;0.40;0.30;;;;;;;8.34;28.99;101700.91;5094542;28;20433;-73
2022/03/13 09:41:21;;;;;;;2.53;2.43;;;;;;;8.40;29.90;101707.19;5094496;28;20433;-72
2022/03/13 09:43:48;;;;;;;17.40;8.10;;;;;;;8.46;29.35;101706.16;5094916;28;20449;-73
2022/03/13 09:46:16;;;;;;;0.57;0.57;;;;;;;8.40;29.30;101708.00;5095521;28;20460;-72
2022/03/13 09:48:44;;;;;;;0.40;0.30;;;;;;;8.43;30.19;101714.78;5094105;28;20480;-72
2022/03/13 09:51:10;;;;;;;0.40;0.30;;;;;;;8.49;29.70;101705.63;5093780;28;20436;-72
2022/03/13 09:53:38;;;;;;;0.50;0.40;;;;;;;8.62;29.62;101707.06;5093910;28;20444;-73
2022/03/13 09:56:05;;;;;;;0.40;0.30;;;;;;;8.73;29.70;101706.88;5094000;28;20460;-73
2022/03/13 09:58:32;;;;;;;0.40;0.30;;;;;;;8.90;28.50;101706.72;5093994;28;20440;-73
2022/03/13 10:01:01;;;;;;;0.63;0.60;;;;;;;9.11;28.76;101710.31;5094010;28;20440;-73
2022/03/13 10:03:28;;;;;;;0.40;0.30;;;;;;;9.18;28.31;101708.19;5093930;28;20443;-73
2022/03/13 10:05:56;;;;;;;13.90;12.50;;;;;;;9.16;27.79;101713.03;5093798;28;20460;-73
2022/03/13 10:08:27;;;;;;;0.40;0.20;;;;;;;9.25;27.82;101706.09;5093609;28;20484;-74
2022/03/13 10:10:54;;;;;;;0.40;0.30;;;;;;;9.40;28.03;101699.09;5094146;28;20432;-68
2022/03/13 10:13:34;;;;;;;0.80;0.80;;;;;;;9.46;27.96;101708.84;5093741;28;20483;-72
2022/03/13 10:16:01;;;;;;;0.40;0.30;;;;;;;9.48;27.95;101702.09;5093617;28;20802;-73
2022/03/13 10:18:29;;;;;;;0.40;0.30;;;;;;;9.40;28.25;101693.69;5093336;28;20444;-73
2022/03/13 10:20:56;;;;;;;0.40;0.30;;;;;;;9.47;27.90;101686.94;5093609;28;20509;-72
2022/03/13 10:23:23;;;;;;;1.03;0.80;;;;;;;9.49;27.66;101686.69;5093142;28;20440;-72
2022/03/13 10:25:51;;;;;;;0.40;0.30;;;;;;;9.46;26.60;101679.09;5093218;28;21035;-73
2022/03/13 10:28:20;;;;;;;0.40;0.30;;;;;;;9.66;27.33;101686.47;5093065;28;20993;-72
2022/03/13 10:30:49;;;;;;;0.40;0.30;;;;;;;9.86;27.02;101678.34;5093676;28;20436;-73
2022/03/13 10:33:15;;;;;;;2.67;2.47;;;;;;;9.97;27.47;101676.50;5093573;28;20476;-73
2022/03/13 10:35:44;;;;;;;0.40;0.30;;;;;;;10.09;26.96;101679.72;5093383;28;20441;-73
2022/03/13 10:38:16;;;;;;;0.40;0.30;;;;;;;10.16;27.36;101674.84;5093443;28;20447;-73
2022/03/13 10:40:42;;;;;;;0.77;0.77;;;;;;;10.40;27.08;101669.72;5093143;28;20827;-73
2022/03/13 10:43:09;;;;;;;0.40;0.30;;;;;;;10.50;27.03;101671.63;5093487;28;20441;-73
2022/03/13 10:45:37;;;;;;;0.40;0.30;;;;;;;10.61;26.95;101671.31;5093498;28;20823;-73
2022/03/13 10:48:36;;;;;;;0.40;0.30;;;;;;;10.64;26.53;101664.53;5093374;28;20476;-73
2022/03/13 10:51:06;;;;;;;0.40;0.30;;;;;;;10.77;27.19;101655.03;4991638;28;20520;-72
2022/03/13 10:53:32;;;;;;;0.40;0.30;;;;;;;11.03;26.33;101661.97;5072346;28;20472;-72
2022/03/13 10:56:08;;;;;;;0.40;0.30;;;;;;;11.16;26.66;101666.00;5093483;28;20874;-73
2022/03/13 10:58:37;;;;;;;0.40;0.30;;;;;;;11.33;26.50;101663.75;5093317;28;20436;-72
2022/03/13 11:01:06;;;;;;;1.73;1.63;;;;;;;11.49;25.89;101669.06;5093251;28;20523;-72
2022/03/13 11:03:34;;;;;;;0.40;0.30;;;;;;;11.48;26.09;101667.47;5094934;28;20440;-73
2022/03/13 11:06:01;;;;;;;0.40;0.30;;;;;;;11.69;25.78;101665.44;5097333;28;20460;-73
2022/03/13 11:08:30;;;;;;;0.40;0.20;;;;;;;11.93;25.72;101662.84;5097229;28;20503;-73
2022/03/13 11:10:57;;;;;;;0.40;0.30;;;;;;;12.20;25.50;101667.78;5097393;28;20451;-72
2022/03/13 11:13:26;;;;;;;0.40;0.27;;;;;;;12.37;24.67;101660.00;5097255;28;20448;-73
2022/03/13 11:15:55;;;;;;;0.40;0.30;;;;;;;12.49;24.77;101659.63;5097137;28;20506;-72
2022/03/13 11:18:26;;;;;;;0.40;0.30;;;;;;;12.61;24.35;101662.75;5098195;28;20432;-73
2022/03/13 11:20:52;;;;;;;0.40;0.30;;;;;;;12.73;24.24;101660.44;5097875;28;20432;-73
2022/03/13 11:23:23;;;;;;;0.40;0.30;;;;;;;12.79;23.78;101662.03;5097134;28;20440;-73
2022/03/13 11:25:55;;;;;;;0.40;0.20;;;;;;;13.01;24.21;101652.50;5097138;28;20868;-72
2022/03/13 11:28:23;;;;;;;0.40;0.20;;;;;;;13.27;23.61;101656.56;5096657;28;20472;-73
2022/03/13 11:30:50;;;;;;;0.40;0.30;;;;;;;13.53;24.07;101661.66;5096994;28;20440;-72
2022/03/13 11:33:31;;;;;;;0.40;0.30;;;;;;;13.93;23.30;101664.88;5096903;28;20444;-73